Thunder radar more information blitzortung!


Radar de pluja more information rain snow radar


Visita la nostra xarxa de llocs de meteo:

Template documentation
and downloads

And another site



Wind From: 11-12-2017 11:00 Until: 14:59 warning for: Wind Level: Yellow info button

Pagina Historial Weather Underground text

Diari Resum Agost 23, 2017 Unitats:  Tant    Imperial   Mètric
« Previous Dia
SegĂźent Dia »
Diari Setmana Mensual Anual Personalitzada
  Maxima: Minima: Media:
Temperatura: 93.6 °F /  34.2 °C 65.7 °F /  18.7 °C 81.1 °F /  27.3 °C
Punt de rosada: 67.5 °F /  19.7 °C 52.2 °F /  11.2 °C 60.4 °F /  15.8 °C
Humitat: 87 % 27 % 53 %
Wind Speed: 12.7 mph /  20.4 km/h - 4.2 mph /  6.7 km/h
RĂ fegues de vent: 12.7 mph /  20.4 km/h - -
Vent:- - SSW
Pression baro: 30 in /  1016.8 hPa 29.9 in /  1013.8 hPa -
Precipitacions: 0 in /  0.0 mm    
Historical Graphs
 
 
Dades de taula per Agost 23, 2017
Temps Temperatura Punt de rosada Pression baro Vent Wind Speed RĂ fegues de vent Humitat Rainfall Rate (Hourly)
00:02 72.7 °F /  22.6 °C 63.9 °F /  17.7 °C 30 in /  1015.8 hPa West 2.3 mph /  3.7 km/h 2.3 mph /  3.7 km/h 74 % 0 in /  0.0 mm
00:05 68.4 °F /  20.2 °C 63 °F /  17.2 °C 30 in /  1014.8 hPa West 1 mph /  1.6 km/h 3 mph /  4.8 km/h 83 % 0 in /  0.0 mm
00:15 68.2 °F /  20.1 °C 62.4 °F /  16.9 °C 30 in /  1014.8 hPa Calm   2 mph /  3.2 km/h 82 % 0 in /  0.0 mm
00:25 68.2 °F /  20.1 °C 62.8 °F /  17.1 °C 30 in /  1014.8 hPa Calm   2 mph /  3.2 km/h 83 % 0 in /  0.0 mm
00:35 67.8 °F /  19.9 °C 62.8 °F /  17.1 °C 30 in /  1014.8 hPa Calm   1 mph /  1.6 km/h 84 % 0 in /  0.0 mm
00:45 67.5 °F /  19.7 °C 62.4 °F /  16.9 °C 30 in /  1014.8 hPa ENE 2 mph /  3.2 km/h 2 mph /  3.2 km/h 84 % 0 in /  0.0 mm
00:55 67.3 °F /  19.6 °C 62.2 °F /  16.8 °C 30 in /  1014.8 hPa Calm   2 mph /  3.2 km/h 84 % 0 in /  0.0 mm
01:05 67.1 °F /  19.5 °C 62.1 °F /  16.7 °C 30 in /  1014.8 hPa Calm   1 mph /  1.6 km/h 84 % 0 in /  0.0 mm
01:10 67.1 °F /  19.5 °C 62.1 °F /  16.7 °C 30 in /  1014.8 hPa Calm     84 % 0 in /  0.0 mm
01:20 66.7 °F /  19.3 °C 61.7 °F /  16.5 °C 30 in /  1014.8 hPa Calm   1 mph /  1.6 km/h 84 % 0 in /  0.0 mm
01:30 66.6 °F /  19.2 °C 61.9 °F /  16.6 °C 30 in /  1014.8 hPa Calm   2 mph /  3.2 km/h 85 % 0 in /  0.0 mm
01:40 66.7 °F /  19.3 °C 62.1 °F /  16.7 °C 30 in /  1014.8 hPa Calm   1 mph /  1.6 km/h 85 % 0 in /  0.0 mm
01:50 66.7 °F /  19.3 °C 62.1 °F /  16.7 °C 30 in /  1014.8 hPa Calm   1 mph /  1.6 km/h 85 % 0 in /  0.0 mm
02:00 66.7 °F /  19.3 °C 62.1 °F /  16.7 °C 30 in /  1014.8 hPa Calm     85 % 0 in /  0.0 mm
02:10 66.6 °F /  19.2 °C 61.9 °F /  16.6 °C 30 in /  1014.8 hPa NNW 1 mph /  1.6 km/h 1 mph /  1.6 km/h 85 % 0 in /  0.0 mm
02:20 66.4 °F /  19.1 °C 61.7 °F /  16.5 °C 30 in /  1014.8 hPa Calm   1 mph /  1.6 km/h 85 % 0 in /  0.0 mm
02:30 66.4 °F /  19.1 °C 62.1 °F /  16.7 °C 30 in /  1014.8 hPa Calm   2 mph /  3.2 km/h 86 % 0 in /  0.0 mm
02:40 66.4 °F /  19.1 °C 62.1 °F /  16.7 °C 30 in /  1014.8 hPa ESE 1 mph /  1.6 km/h 2 mph /  3.2 km/h 86 % 0 in /  0.0 mm
02:50 66.2 °F /  19.0 °C 61.9 °F /  16.6 °C 30 in /  1014.8 hPa Calm   2 mph /  3.2 km/h 86 % 0 in /  0.0 mm
03:00 66.2 °F /  19.0 °C 61.9 °F /  16.6 °C 30 in /  1014.8 hPa Calm   2 mph /  3.2 km/h 86 % 0 in /  0.0 mm
03:10 66 °F /  18.9 °C 62.1 °F /  16.7 °C 30 in /  1014.8 hPa Calm   1 mph /  1.6 km/h 87 % 0 in /  0.0 mm
03:20 65.7 °F /  18.7 °C 61.3 °F /  16.3 °C 30 in /  1015.8 hPa Calm     86 % 0 in /  0.0 mm
03:30 65.7 °F /  18.7 °C 61.3 °F /  16.3 °C 30 in /  1015.8 hPa Calm     86 % 0 in /  0.0 mm
03:40 65.8 °F /  18.8 °C 61.5 °F /  16.4 °C 30 in /  1015.8 hPa Calm     86 % 0 in /  0.0 mm
03:50 66 °F /  18.9 °C 61.7 °F /  16.5 °C 30 in /  1015.8 hPa WSW 1 mph /  1.6 km/h 1 mph /  1.6 km/h 86 % 0 in /  0.0 mm
04:00 66.7 °F /  19.3 °C 62.4 °F /  16.9 °C 30 in /  1015.8 hPa Calm   1 mph /  1.6 km/h 86 % 0 in /  0.0 mm
04:10 67.1 °F /  19.5 °C 62.1 °F /  16.7 °C 30 in /  1015.8 hPa WSW 1 mph /  1.6 km/h 1 mph /  1.6 km/h 84 % 0 in /  0.0 mm
04:20 68 °F /  20.0 °C 62.2 °F /  16.8 °C 30 in /  1015.8 hPa ENE 1 mph /  1.6 km/h 2 mph /  3.2 km/h 82 % 0 in /  0.0 mm
04:30 69.1 °F /  20.6 °C 61.9 °F /  16.6 °C 30 in /  1015.8 hPa ENE 1 mph /  1.6 km/h 2 mph /  3.2 km/h 78 % 0 in /  0.0 mm
04:40 69.6 °F /  20.9 °C 61.7 °F /  16.5 °C 30 in /  1015.8 hPa ENE 1 mph /  1.6 km/h 3 mph /  4.8 km/h 76 % 0 in /  0.0 mm
04:50 70.3 °F /  21.3 °C 61.7 °F /  16.5 °C 30 in /  1015.8 hPa ENE 1 mph /  1.6 km/h 2 mph /  3.2 km/h 74 % 0 in /  0.0 mm
05:00 71.6 °F /  22.0 °C 61.3 °F /  16.3 °C 30 in /  1015.8 hPa ENE 2 mph /  3.2 km/h 3 mph /  4.8 km/h 70 % 0 in /  0.0 mm
05:10 72.3 °F /  22.4 °C 61.2 °F /  16.2 °C 30 in /  1015.8 hPa ENE 2 mph /  3.2 km/h 3 mph /  4.8 km/h 68 % 0 in /  0.0 mm
10:13 77.7 °F /  25.4 °C 64.6 °F /  18.1 °C 30 in /  1016.8 hPa WSW 4.3 mph /  6.9 km/h 4.3 mph /  6.9 km/h 64 % 0 in /  0.0 mm
10:14 77.7 °F /  25.4 °C 64.6 °F /  18.1 °C 30 in /  1016.8 hPa SW 4.6 mph /  7.4 km/h 4.6 mph /  7.4 km/h 64 % 0 in /  0.0 mm
10:19 78.3 °F /  25.7 °C 65.1 °F /  18.4 °C 30 in /  1016.8 hPa SW 3.8 mph /  6.1 km/h 3.8 mph /  6.1 km/h 64 % 0 in /  0.0 mm
10:24 78.4 °F /  25.8 °C 65.1 °F /  18.4 °C 30 in /  1016.8 hPa West 4.6 mph /  7.4 km/h 4.6 mph /  7.4 km/h 64 % 0 in /  0.0 mm
10:29 78.6 °F /  25.9 °C 65.5 °F /  18.6 °C 30 in /  1015.8 hPa WSW 2.3 mph /  3.7 km/h 2.3 mph /  3.7 km/h 64 % 0 in /  0.0 mm
10:34 79 °F /  26.1 °C 65.8 °F /  18.8 °C 30 in /  1015.8 hPa WSW 3.5 mph /  5.6 km/h 3.5 mph /  5.6 km/h 64 % 0 in /  0.0 mm
10:39 80.2 °F /  26.8 °C 66.9 °F /  19.4 °C 30 in /  1015.8 hPa SE 2.3 mph /  3.7 km/h 2.3 mph /  3.7 km/h 64 % 0 in /  0.0 mm
10:44 79.5 °F /  26.4 °C 65.5 °F /  18.6 °C 30 in /  1015.8 hPa East 2.3 mph /  3.7 km/h 2.3 mph /  3.7 km/h 62 % 0 in /  0.0 mm
10:49 79.5 °F /  26.4 °C 65.8 °F /  18.8 °C 30 in /  1015.8 hPa SW 3.1 mph /  5.0 km/h 3.1 mph /  5.0 km/h 63 % 0 in /  0.0 mm
10:54 79.9 °F /  26.6 °C 66.6 °F /  19.2 °C 30 in /  1015.8 hPa SW 3.5 mph /  5.6 km/h 3.5 mph /  5.6 km/h 64 % 0 in /  0.0 mm
10:59 80.4 °F /  26.9 °C 66.7 °F /  19.3 °C 30 in /  1015.8 hPa SW 2.3 mph /  3.7 km/h 2.3 mph /  3.7 km/h 63 % 0 in /  0.0 mm
11:04 81.7 °F /  27.6 °C 67.5 °F /  19.7 °C 30 in /  1015.8 hPa SW 3.5 mph /  5.6 km/h 3.5 mph /  5.6 km/h 62 % 0 in /  0.0 mm
11:09 81.3 °F /  27.4 °C 66.6 °F /  19.2 °C 30 in /  1015.8 hPa NW 2.3 mph /  3.7 km/h 2.3 mph /  3.7 km/h 61 % 0 in /  0.0 mm
11:14 81.7 °F /  27.6 °C 66 °F /  18.9 °C 30 in /  1016.8 hPa SSE 2.9 mph /  4.7 km/h 2.9 mph /  4.7 km/h 59 % 0 in /  0.0 mm
11:19 82.2 °F /  27.9 °C 66 °F /  18.9 °C 30 in /  1016.8 hPa South 3.6 mph /  5.8 km/h 3.6 mph /  5.8 km/h 58 % 0 in /  0.0 mm
11:24 83.1 °F /  28.4 °C 66.7 °F /  19.3 °C 30 in /  1016.8 hPa SE 3.5 mph /  5.6 km/h   58 % 0 in /  0.0 mm
11:29 83.3 °F /  28.5 °C 66.9 °F /  19.4 °C 30 in /  1015.8 hPa SW 3.5 mph /  5.6 km/h 3.5 mph /  5.6 km/h 58 % 0 in /  0.0 mm
11:34 83.5 °F /  28.6 °C 66.6 °F /  19.2 °C 30 in /  1015.8 hPa ENE 2.3 mph /  3.7 km/h 2.3 mph /  3.7 km/h 57 % 0 in /  0.0 mm
11:39 84.4 °F /  29.1 °C 65.8 °F /  18.8 °C 30 in /  1015.8 hPa East 3.1 mph /  5.0 km/h 3.1 mph /  5.0 km/h 54 % 0 in /  0.0 mm
11:44 84.9 °F /  29.4 °C 65.8 °F /  18.8 °C 30 in /  1015.8 hPa East 2.3 mph /  3.7 km/h 2.3 mph /  3.7 km/h 53 % 0 in /  0.0 mm
11:49 85.6 °F /  29.8 °C 67.1 °F /  19.5 °C 30 in /  1015.8 hPa ESE 3.5 mph /  5.6 km/h 3.5 mph /  5.6 km/h 54 % 0 in /  0.0 mm
11:54 86 °F /  30.0 °C 66.9 °F /  19.4 °C 30 in /  1015.8 hPa WSW 2.9 mph /  4.7 km/h 2.9 mph /  4.7 km/h 53 % 0 in /  0.0 mm
11:59 86 °F /  30.0 °C 65.1 °F /  18.4 °C 30 in /  1015.8 hPa ENE 3.5 mph /  5.6 km/h 3.5 mph /  5.6 km/h 50 % 0 in /  0.0 mm
12:04 87.1 °F /  30.6 °C 66.7 °F /  19.3 °C 30 in /  1015.8 hPa SW 2.9 mph /  4.7 km/h 3.1 mph /  5.0 km/h 51 % 0 in /  0.0 mm
12:09 86.5 °F /  30.3 °C 65.1 °F /  18.4 °C 30 in /  1015.8 hPa WSW 4.6 mph /  7.4 km/h 4.6 mph /  7.4 km/h 49 % 0 in /  0.0 mm
12:14 86.4 °F /  30.2 °C 64.4 °F /  18.0 °C 30 in /  1016.8 hPa SW 2.6 mph /  4.2 km/h 3.8 mph /  6.1 km/h 48 % 0 in /  0.0 mm
12:19 87.3 °F /  30.7 °C 63.3 °F /  17.4 °C 30 in /  1016.8 hPa SSE 2.3 mph /  3.7 km/h 2.3 mph /  3.7 km/h 45 % 0 in /  0.0 mm
12:24 87.6 °F /  30.9 °C 63 °F /  17.2 °C 30 in /  1016.8 hPa SSE 4.3 mph /  6.9 km/h 4.3 mph /  6.9 km/h 44 % 0 in /  0.0 mm
12:29 88.5 °F /  31.4 °C 64.6 °F /  18.1 °C 30 in /  1015.8 hPa SSW 2.3 mph /  3.7 km/h 2.3 mph /  3.7 km/h 45 % 0 in /  0.0 mm
12:30 88.5 °F /  31.4 °C 64.6 °F /  18.1 °C 30 in /  1015.8 hPa West 2.3 mph /  3.7 km/h 2.3 mph /  3.7 km/h 45 % 0 in /  0.0 mm
12:35 89.6 °F /  32.0 °C 64 °F /  17.8 °C 30 in /  1015.8 hPa SW 2.3 mph /  3.7 km/h 2.3 mph /  3.7 km/h 43 % 0 in /  0.0 mm
12:40 88.9 °F /  31.6 °C 63.5 °F /  17.5 °C 30 in /  1015.8 hPa SSE 4.6 mph /  7.4 km/h 4.6 mph /  7.4 km/h 43 % 0 in /  0.0 mm
12:45 88.3 °F /  31.3 °C 62.2 °F /  16.8 °C 30 in /  1015.8 hPa SSW 6.4 mph /  10.3 km/h 6.4 mph /  10.3 km/h 42 % 0 in /  0.0 mm
12:50 88.2 °F /  31.2 °C 63.5 °F /  17.5 °C 30 in /  1015.8 hPa ESE 3.6 mph /  5.8 km/h 3.6 mph /  5.8 km/h 44 % 0 in /  0.0 mm
12:55 87.4 °F /  30.8 °C 64 °F /  17.8 °C 30 in /  1015.8 hPa WSW 6.2 mph /  10.0 km/h 6.2 mph /  10.0 km/h 46 % 0 in /  0.0 mm
13:00 86.4 °F /  30.2 °C 63.1 °F /  17.3 °C 30 in /  1014.8 hPa SE 5.8 mph /  9.3 km/h 5.8 mph /  9.3 km/h 46 % 0 in /  0.0 mm
13:05 88 °F /  31.1 °C 64.6 °F /  18.1 °C 30 in /  1014.8 hPa West 3.1 mph /  5.0 km/h 3.1 mph /  5.0 km/h 46 % 0 in /  0.0 mm
13:10 87.8 °F /  31.0 °C 64.4 °F /  18.0 °C 30 in /  1014.8 hPa SW 6.4 mph /  10.3 km/h 6.4 mph /  10.3 km/h 46 % 0 in /  0.0 mm
13:15 88.2 °F /  31.2 °C 64.8 °F /  18.2 °C 30 in /  1015.8 hPa SSW 5.9 mph /  9.5 km/h 5.9 mph /  9.5 km/h 46 % 0 in /  0.0 mm
13:20 88.2 °F /  31.2 °C 64.8 °F /  18.2 °C 30 in /  1015.8 hPa WSW 5.8 mph /  9.3 km/h 5.8 mph /  9.3 km/h 46 % 0 in /  0.0 mm
13:25 89.2 °F /  31.8 °C 65.1 °F /  18.4 °C 30 in /  1015.8 hPa SE 3.6 mph /  5.8 km/h 3.6 mph /  5.8 km/h 45 % 0 in /  0.0 mm
13:30 89.6 °F /  32.0 °C 65.5 °F /  18.6 °C 30 in /  1015.8 hPa West 3.5 mph /  5.6 km/h 3.5 mph /  5.6 km/h 45 % 0 in /  0.0 mm
13:35 89.6 °F /  32.0 °C 64.8 °F /  18.2 °C 30 in /  1015.8 hPa NNE 3.5 mph /  5.6 km/h 3.5 mph /  5.6 km/h 44 % 0 in /  0.0 mm
13:40 90.1 °F /  32.3 °C 65.8 °F /  18.8 °C 30 in /  1015.8 hPa SW 6.9 mph /  11.1 km/h 6.9 mph /  11.1 km/h 45 % 0 in /  0.0 mm
13:45 90.1 °F /  32.3 °C 64.6 °F /  18.1 °C 30 in /  1016.8 hPa South 3.5 mph /  5.6 km/h 3.5 mph /  5.6 km/h 43 % 0 in /  0.0 mm
13:50 91.4 °F /  33.0 °C 65.8 °F /  18.8 °C 30 in /  1016.8 hPa SW 6.9 mph /  11.1 km/h 6.9 mph /  11.1 km/h 43 % 0 in /  0.0 mm
13:55 90.5 °F /  32.5 °C 64.9 °F /  18.3 °C 30 in /  1016.8 hPa ESE 5.9 mph /  9.5 km/h 5.9 mph /  9.5 km/h 43 % 0 in /  0.0 mm
14:00 90.3 °F /  32.4 °C 65.5 °F /  18.6 °C 30 in /  1015.8 hPa NNW 5.8 mph /  9.3 km/h 5.8 mph /  9.3 km/h 44 % 0 in /  0.0 mm
14:05 91 °F /  32.8 °C 66 °F /  18.9 °C 30 in /  1015.8 hPa SSE 6.9 mph /  11.1 km/h 6.9 mph /  11.1 km/h 44 % 0 in /  0.0 mm
14:10 91.8 °F /  33.2 °C 65.5 °F /  18.6 °C 30 in /  1015.8 hPa West 2.3 mph /  3.7 km/h 2.4 mph /  3.9 km/h 42 % 0 in /  0.0 mm
14:15 92.8 °F /  33.8 °C 66.4 °F /  19.1 °C 30 in /  1015.8 hPa SW 5.8 mph /  9.3 km/h 5.8 mph /  9.3 km/h 42 % 0 in /  0.0 mm
14:20 92.7 °F /  33.7 °C 66.2 °F /  19.0 °C 30 in /  1015.8 hPa SW 5.9 mph /  9.5 km/h 5.9 mph /  9.5 km/h 42 % 0 in /  0.0 mm
14:25 92.1 °F /  33.4 °C 64.9 °F /  18.3 °C 30 in /  1015.8 hPa WSW 5.8 mph /  9.3 km/h 5.8 mph /  9.3 km/h 41 % 0 in /  0.0 mm
14:30 92.1 °F /  33.4 °C 64.2 °F /  17.9 °C 30 in /  1015.8 hPa SSW 8.1 mph /  13.0 km/h 8.1 mph /  13.0 km/h 40 % 0 in /  0.0 mm
14:35 92.1 °F /  33.4 °C 64.2 °F /  17.9 °C 30 in /  1015.8 hPa West 8.1 mph /  13.0 km/h 8.1 mph /  13.0 km/h 40 % 0 in /  0.0 mm
14:40 92.8 °F /  33.8 °C 64.9 °F /  18.3 °C 30 in /  1015.8 hPa WSW 5.8 mph /  9.3 km/h 5.8 mph /  9.3 km/h 40 % 0 in /  0.0 mm
14:45 92.5 °F /  33.6 °C 63.1 °F /  17.3 °C 30 in /  1014.8 hPa SW 9.2 mph /  14.8 km/h 9.2 mph /  14.8 km/h 38 % 0 in /  0.0 mm
14:50 91.8 °F /  33.2 °C 62.4 °F /  16.9 °C 30 in /  1014.8 hPa WSW 9.2 mph /  14.8 km/h 9.2 mph /  14.8 km/h 38 % 0 in /  0.0 mm
14:55 92.1 °F /  33.4 °C 62.1 °F /  16.7 °C 30 in /  1014.8 hPa WSW 8.1 mph /  13.0 km/h 8.1 mph /  13.0 km/h 37 % 0 in /  0.0 mm
15:00 92.1 °F /  33.4 °C 62.1 °F /  16.7 °C 30 in /  1014.8 hPa WSW 6.9 mph /  11.1 km/h 6.9 mph /  11.1 km/h 37 % 0 in /  0.0 mm
15:05 92.3 °F /  33.5 °C 61.5 °F /  16.4 °C 30 in /  1014.8 hPa South 8.1 mph /  13.0 km/h 8.1 mph /  13.0 km/h 36 % 0 in /  0.0 mm
15:10 92.3 °F /  33.5 °C 61.5 °F /  16.4 °C 30 in /  1014.8 hPa South 2.9 mph /  4.7 km/h 2.9 mph /  4.7 km/h 36 % 0 in /  0.0 mm
15:15 92.8 °F /  33.8 °C 62.1 °F /  16.7 °C 30 in /  1014.8 hPa West 6.9 mph /  11.1 km/h 6.9 mph /  11.1 km/h 36 % 0 in /  0.0 mm
15:20 93 °F /  33.9 °C 62.1 °F /  16.7 °C 30 in /  1014.8 hPa SSW 6.9 mph /  11.1 km/h 6.9 mph /  11.1 km/h 36 % 0 in /  0.0 mm
15:25 92.7 °F /  33.7 °C 61 °F /  16.1 °C 30 in /  1014.8 hPa South 9.2 mph /  14.8 km/h 9.2 mph /  14.8 km/h 35 % 0 in /  0.0 mm
15:30 92.1 °F /  33.4 °C 59.7 °F /  15.4 °C 30 in /  1014.8 hPa SW 6.9 mph /  11.1 km/h 6.9 mph /  11.1 km/h 34 % 0 in /  0.0 mm
15:35 92.5 °F /  33.6 °C 58.3 °F /  14.6 °C 30 in /  1014.8 hPa SW 8.1 mph /  13.0 km/h 8.1 mph /  13.0 km/h 32 % 0 in /  0.0 mm
15:40 92.8 °F /  33.8 °C 57.7 °F /  14.3 °C 30 in /  1014.8 hPa West 6.9 mph /  11.1 km/h 6.9 mph /  11.1 km/h 31 % 0 in /  0.0 mm
15:45 92.8 °F /  33.8 °C 56.8 °F /  13.8 °C 29.9 in /  1013.8 hPa SE 6.9 mph /  11.1 km/h 6.9 mph /  11.1 km/h 30 % 0 in /  0.0 mm
15:50 92.7 °F /  33.7 °C 55.8 °F /  13.2 °C 29.9 in /  1013.8 hPa West 6.2 mph /  10.0 km/h 6.2 mph /  10.0 km/h 29 % 0 in /  0.0 mm
15:55 93.6 °F /  34.2 °C 55.6 °F /  13.1 °C 29.9 in /  1013.8 hPa SSE 6.9 mph /  11.1 km/h 6.9 mph /  11.1 km/h 28 % 0 in /  0.0 mm
16:00 93 °F /  33.9 °C 54.1 °F /  12.3 °C 30 in /  1014.8 hPa South 10.4 mph /  16.7 km/h 10.4 mph /  16.7 km/h 27 % 0 in /  0.0 mm
16:05 93.4 °F /  34.1 °C 55.4 °F /  13.0 °C 30 in /  1014.8 hPa SW 10.4 mph /  16.7 km/h 10.4 mph /  16.7 km/h 28 % 0 in /  0.0 mm
16:10 92.8 °F /  33.8 °C 54 °F /  12.2 °C 30 in /  1014.8 hPa SW 5.8 mph /  9.3 km/h 5.8 mph /  9.3 km/h 27 % 0 in /  0.0 mm
16:15 92.8 °F /  33.8 °C 54 °F /  12.2 °C 30 in /  1014.8 hPa SW 8.1 mph /  13.0 km/h 8.1 mph /  13.0 km/h 27 % 0 in /  0.0 mm
16:20 93 °F /  33.9 °C 54.1 °F /  12.3 °C 30 in /  1014.8 hPa WSW 10.4 mph /  16.7 km/h 10.4 mph /  16.7 km/h 27 % 0 in /  0.0 mm
16:25 91.9 °F /  33.3 °C 53.2 °F /  11.8 °C 30 in /  1014.8 hPa West 10.4 mph /  16.7 km/h 10.4 mph /  16.7 km/h 27 % 0 in /  0.0 mm
16:30 91.4 °F /  33.0 °C 52.7 °F /  11.5 °C 30 in /  1014.8 hPa SW 10.4 mph /  16.7 km/h 10.4 mph /  16.7 km/h 27 % 0 in /  0.0 mm
16:35 92.3 °F /  33.5 °C 53.4 °F /  11.9 °C 30 in /  1014.8 hPa South 8.1 mph /  13.0 km/h 8.1 mph /  13.0 km/h 27 % 0 in /  0.0 mm
16:40 91.9 °F /  33.3 °C 54.1 °F /  12.3 °C 30 in /  1014.8 hPa SSW 6.2 mph /  10.0 km/h 6.2 mph /  10.0 km/h 28 % 0 in /  0.0 mm
16:45 90.7 °F /  32.6 °C 52.2 °F /  11.2 °C 30 in /  1014.8 hPa SW 8.1 mph /  13.0 km/h 8.1 mph /  13.0 km/h 27 % 0 in /  0.0 mm
16:50 89.4 °F /  31.9 °C 53.1 °F /  11.7 °C 30 in /  1014.8 hPa SSW 8.1 mph /  13.0 km/h 8.1 mph /  13.0 km/h 29 % 0 in /  0.0 mm
16:55 90.1 °F /  32.3 °C 53.6 °F /  12.0 °C 30 in /  1014.8 hPa SSW 6.9 mph /  11.1 km/h 6.9 mph /  11.1 km/h 29 % 0 in /  0.0 mm
17:00 90.9 °F /  32.7 °C 54.1 °F /  12.3 °C 30 in /  1014.8 hPa SW 8.5 mph /  13.7 km/h 8.5 mph /  13.7 km/h 29 % 0 in /  0.0 mm
17:05 90.5 °F /  32.5 °C 54.9 °F /  12.7 °C 30 in /  1014.8 hPa SW 5.8 mph /  9.3 km/h 5.8 mph /  9.3 km/h 30 % 0 in /  0.0 mm
17:10 89.2 °F /  31.8 °C 52.9 °F /  11.6 °C 30 in /  1014.8 hPa WSW 9.2 mph /  14.8 km/h 9.2 mph /  14.8 km/h 29 % 0 in /  0.0 mm
17:15 89.6 °F /  32.0 °C 53.1 °F /  11.7 °C 30 in /  1014.8 hPa SSW 8.1 mph /  13.0 km/h 8.1 mph /  13.0 km/h 29 % 0 in /  0.0 mm
17:20 90 °F /  32.2 °C 53.4 °F /  11.9 °C 30 in /  1014.8 hPa SW 5.6 mph /  9.0 km/h 5.6 mph /  9.0 km/h 29 % 0 in /  0.0 mm
17:25 89.6 °F /  32.0 °C 52.2 °F /  11.2 °C 30 in /  1014.8 hPa SSW 12.7 mph /  20.4 km/h 12.7 mph /  20.4 km/h 28 % 0 in /  0.0 mm
17:30 89.6 °F /  32.0 °C 53.1 °F /  11.7 °C 30 in /  1014.8 hPa WSW 6.9 mph /  11.1 km/h 6.9 mph /  11.1 km/h 29 % 0 in /  0.0 mm
17:35 90.1 °F /  32.3 °C 54.5 °F /  12.5 °C 30 in /  1014.8 hPa SSW 8.1 mph /  13.0 km/h 8.1 mph /  13.0 km/h 30 % 0 in /  0.0 mm
17:40 89.4 °F /  31.9 °C 54 °F /  12.2 °C 30 in /  1014.8 hPa South 6.9 mph /  11.1 km/h 6.9 mph /  11.1 km/h 30 % 0 in /  0.0 mm
17:45 88.5 °F /  31.4 °C 52.2 °F /  11.2 °C 30 in /  1014.8 hPa WSW 9.2 mph /  14.8 km/h 9.2 mph /  14.8 km/h 29 % 0 in /  0.0 mm
17:50 88 °F /  31.1 °C 52.7 °F /  11.5 °C 30 in /  1014.8 hPa SSW 5.8 mph /  9.3 km/h 5.8 mph /  9.3 km/h 30 % 0 in /  0.0 mm
17:55 87.8 °F /  31.0 °C 52.5 °F /  11.4 °C 30 in /  1014.8 hPa SSW 9.2 mph /  14.8 km/h 9.2 mph /  14.8 km/h 30 % 0 in /  0.0 mm
18:00 87.8 °F /  31.0 °C 53.4 °F /  11.9 °C 30 in /  1014.8 hPa SSW 8.1 mph /  13.0 km/h 8.1 mph /  13.0 km/h 31 % 0 in /  0.0 mm
18:05 87.8 °F /  31.0 °C 54.3 °F /  12.4 °C 30 in /  1014.8 hPa SSE 4 mph /  6.4 km/h 4 mph /  6.4 km/h 32 % 0 in /  0.0 mm
18:10 88.3 °F /  31.3 °C 54.7 °F /  12.6 °C 30 in /  1014.8 hPa WSW 8.1 mph /  13.0 km/h 8.1 mph /  13.0 km/h 32 % 0 in /  0.0 mm
18:15 88.5 °F /  31.4 °C 54 °F /  12.2 °C 30 in /  1014.8 hPa SW 5.8 mph /  9.3 km/h 5.8 mph /  9.3 km/h 31 % 0 in /  0.0 mm
18:20 87.4 °F /  30.8 °C 52.2 °F /  11.2 °C 30 in /  1014.8 hPa SW 11.5 mph /  18.5 km/h 11.5 mph /  18.5 km/h 30 % 0 in /  0.0 mm
18:25 86.4 °F /  30.2 °C 52.2 °F /  11.2 °C 30 in /  1014.8 hPa SW 8.1 mph /  13.0 km/h 8.1 mph /  13.0 km/h 31 % 0 in /  0.0 mm
18:30 85.6 °F /  29.8 °C 52.3 °F /  11.3 °C 30 in /  1014.8 hPa SW 8.1 mph /  13.0 km/h 8.1 mph /  13.0 km/h 32 % 0 in /  0.0 mm
18:35 85.3 °F /  29.6 °C 52.2 °F /  11.2 °C 30 in /  1014.8 hPa SSW 6.9 mph /  11.1 km/h 6.9 mph /  11.1 km/h 32 % 0 in /  0.0 mm
18:40 85.1 °F /  29.5 °C 52.9 °F /  11.6 °C 30 in /  1014.8 hPa SW 5.9 mph /  9.5 km/h 5.9 mph /  9.5 km/h 33 % 0 in /  0.0 mm
18:45 84.7 °F /  29.3 °C 54.1 °F /  12.3 °C 30 in /  1014.8 hPa SSW 4.6 mph /  7.4 km/h 4.6 mph /  7.4 km/h 35 % 0 in /  0.0 mm
18:50 84.6 °F /  29.2 °C 54.7 °F /  12.6 °C 30 in /  1014.8 hPa SW 6.9 mph /  11.1 km/h 6.9 mph /  11.1 km/h 36 % 0 in /  0.0 mm
18:55 84.9 °F /  29.4 °C 55 °F /  12.8 °C 30 in /  1014.8 hPa SW 4 mph /  6.4 km/h 4 mph /  6.4 km/h 36 % 0 in /  0.0 mm
19:00 84.7 °F /  29.3 °C 54.9 °F /  12.7 °C 30 in /  1014.8 hPa SW 6.9 mph /  11.1 km/h 6.9 mph /  11.1 km/h 36 % 0 in /  0.0 mm
19:05 84 °F /  28.9 °C 54.9 °F /  12.7 °C 30 in /  1014.8 hPa SSW 5.9 mph /  9.5 km/h 5.9 mph /  9.5 km/h 37 % 0 in /  0.0 mm
19:10 83.3 °F /  28.5 °C 55 °F /  12.8 °C 30 in /  1014.8 hPa SW 5.8 mph /  9.3 km/h 5.8 mph /  9.3 km/h 38 % 0 in /  0.0 mm
19:15 82.9 °F /  28.3 °C 54.7 °F /  12.6 °C 30 in /  1014.8 hPa SW 2.9 mph /  4.7 km/h 2.9 mph /  4.7 km/h 38 % 0 in /  0.0 mm
19:20 82.6 °F /  28.1 °C 55 °F /  12.8 °C 30 in /  1014.8 hPa West 6.9 mph /  11.1 km/h 6.9 mph /  11.1 km/h 39 % 0 in /  0.0 mm
19:25 82.2 °F /  27.9 °C 54.9 °F /  12.7 °C 30 in /  1014.8 hPa SW 5.8 mph /  9.3 km/h 5.8 mph /  9.3 km/h 39 % 0 in /  0.0 mm
19:30 81.7 °F /  27.6 °C 54.3 °F /  12.4 °C 30 in /  1014.8 hPa SW 4.6 mph /  7.4 km/h 4.6 mph /  7.4 km/h 39 % 0 in /  0.0 mm
19:35 81.5 °F /  27.5 °C 54.1 °F /  12.3 °C 30 in /  1014.8 hPa West 1.2 mph /  1.9 km/h   39 % 0 in /  0.0 mm
19:40 81.3 °F /  27.4 °C 54 °F /  12.2 °C 30 in /  1014.8 hPa WSW 2.3 mph /  3.7 km/h 2.3 mph /  3.7 km/h 39 % 0 in /  0.0 mm
19:45 81.3 °F /  27.4 °C 54 °F /  12.2 °C 30 in /  1014.8 hPa WSW 4.3 mph /  6.9 km/h 4.3 mph /  6.9 km/h 39 % 0 in /  0.0 mm
19:50 81.1 °F /  27.3 °C 54.5 °F /  12.5 °C 30 in /  1014.8 hPa SW 5.4 mph /  8.7 km/h 5.4 mph /  8.7 km/h 40 % 0 in /  0.0 mm
19:55 80.8 °F /  27.1 °C 54.1 °F /  12.3 °C 30 in /  1014.8 hPa SW 5.8 mph /  9.3 km/h 5.8 mph /  9.3 km/h 40 % 0 in /  0.0 mm
20:00 80.6 °F /  27.0 °C 54.7 °F /  12.6 °C 30 in /  1015.8 hPa SSW 4.6 mph /  7.4 km/h 4.6 mph /  7.4 km/h 41 % 0 in /  0.0 mm
20:05 80.1 °F /  26.7 °C 55.6 °F /  13.1 °C 30 in /  1015.8 hPa SSW 5.8 mph /  9.3 km/h 5.8 mph /  9.3 km/h 43 % 0 in /  0.0 mm
20:10 79.9 °F /  26.6 °C 55.4 °F /  13.0 °C 30 in /  1015.8 hPa SW 2.3 mph /  3.7 km/h 2.3 mph /  3.7 km/h 43 % 0 in /  0.0 mm
20:15 79.7 °F /  26.5 °C 55.9 °F /  13.3 °C 30 in /  1014.8 hPa SW 3.8 mph /  6.1 km/h 3.8 mph /  6.1 km/h 44 % 0 in /  0.0 mm
20:20 79.5 °F /  26.4 °C 56.3 °F /  13.5 °C 30 in /  1014.8 hPa SW 2.3 mph /  3.7 km/h 2.3 mph /  3.7 km/h 45 % 0 in /  0.0 mm
20:25 79.2 °F /  26.2 °C 56.7 °F /  13.7 °C 30 in /  1014.8 hPa SSW 3.5 mph /  5.6 km/h 3.5 mph /  5.6 km/h 46 % 0 in /  0.0 mm
20:30 79 °F /  26.1 °C 57 °F /  13.9 °C 30 in /  1014.8 hPa SSW 4.6 mph /  7.4 km/h 4.6 mph /  7.4 km/h 47 % 0 in /  0.0 mm
20:35 78.8 °F /  26.0 °C 56.8 °F /  13.8 °C 30 in /  1014.8 hPa SW 3.5 mph /  5.6 km/h 3.5 mph /  5.6 km/h 47 % 0 in /  0.0 mm
20:40 78.6 °F /  25.9 °C 57.4 °F /  14.1 °C 30 in /  1014.8 hPa SW 3.5 mph /  5.6 km/h 3.5 mph /  5.6 km/h 48 % 0 in /  0.0 mm
20:45 78.3 °F /  25.7 °C 57.6 °F /  14.2 °C 30 in /  1015.8 hPa SW 6.9 mph /  11.1 km/h 6.9 mph /  11.1 km/h 49 % 0 in /  0.0 mm
20:50 78.1 °F /  25.6 °C 57.9 °F /  14.4 °C 30 in /  1015.8 hPa SW 6 mph /  9.7 km/h 6 mph /  9.7 km/h 50 % 0 in /  0.0 mm
20:55 77.9 °F /  25.5 °C 57.7 °F /  14.3 °C 30 in /  1015.8 hPa WSW 5.8 mph /  9.3 km/h 5.8 mph /  9.3 km/h 50 % 0 in /  0.0 mm
21:00 77.7 °F /  25.4 °C 58.1 °F /  14.5 °C 30 in /  1014.8 hPa West 4.6 mph /  7.4 km/h 4.6 mph /  7.4 km/h 51 % 0 in /  0.0 mm
21:05 77.5 °F /  25.3 °C 57.9 °F /  14.4 °C 30 in /  1014.8 hPa West 4.6 mph /  7.4 km/h 4.6 mph /  7.4 km/h 51 % 0 in /  0.0 mm
21:10 77.4 °F /  25.2 °C 58.5 °F /  14.7 °C 30 in /  1014.8 hPa SW 3.5 mph /  5.6 km/h 3.5 mph /  5.6 km/h 52 % 0 in /  0.0 mm
21:15 77.4 °F /  25.2 °C 58.5 °F /  14.7 °C 30 in /  1014.8 hPa SW 4.6 mph /  7.4 km/h 4.6 mph /  7.4 km/h 52 % 0 in /  0.0 mm
21:20 77 °F /  25.0 °C 59.2 °F /  15.1 °C 30 in /  1014.8 hPa SW 5.8 mph /  9.3 km/h 5.8 mph /  9.3 km/h 54 % 0 in /  0.0 mm
21:25 77 °F /  25.0 °C 59.5 °F /  15.3 °C 30 in /  1014.8 hPa NW 3.5 mph /  5.6 km/h 3.5 mph /  5.6 km/h 55 % 0 in /  0.0 mm
21:30 76.6 °F /  24.8 °C 60.3 °F /  15.7 °C 30 in /  1014.8 hPa SW 3.5 mph /  5.6 km/h 3.5 mph /  5.6 km/h 57 % 0 in /  0.0 mm
21:35 76.6 °F /  24.8 °C 60.3 °F /  15.7 °C 30 in /  1014.8 hPa WSW 3.5 mph /  5.6 km/h 3.5 mph /  5.6 km/h 57 % 0 in /  0.0 mm
21:40 76.5 °F /  24.7 °C 60.6 °F /  15.9 °C 30 in /  1014.8 hPa SW 2.3 mph /  3.7 km/h 2.3 mph /  3.7 km/h 58 % 0 in /  0.0 mm
21:45 76.3 °F /  24.6 °C 61 °F /  16.1 °C 30 in /  1015.8 hPa WSW 2.4 mph /  3.9 km/h 2.4 mph /  3.9 km/h 59 % 0 in /  0.0 mm
21:50 76.3 °F /  24.6 °C 61 °F /  16.1 °C 30 in /  1015.8 hPa SW 3.5 mph /  5.6 km/h 3.5 mph /  5.6 km/h 59 % 0 in /  0.0 mm
21:55 76.1 °F /  24.5 °C 61.2 °F /  16.2 °C 30 in /  1015.8 hPa SW 2.3 mph /  3.7 km/h 2.3 mph /  3.7 km/h 60 % 0 in /  0.0 mm
22:00 75.9 °F /  24.4 °C 61 °F /  16.1 °C 30 in /  1015.8 hPa SSW 2.3 mph /  3.7 km/h 2.3 mph /  3.7 km/h 60 % 0 in /  0.0 mm
22:05 75.6 °F /  24.2 °C 60.6 °F /  15.9 °C 30 in /  1015.8 hPa WSW 3.8 mph /  6.1 km/h 3.8 mph /  6.1 km/h 60 % 0 in /  0.0 mm
22:10 75.4 °F /  24.1 °C 61.5 °F /  16.4 °C 30 in /  1015.8 hPa SW 2.6 mph /  4.2 km/h 2.6 mph /  4.2 km/h 62 % 0 in /  0.0 mm
22:15 75.4 °F /  24.1 °C 61.5 °F /  16.4 °C 30 in /  1015.8 hPa South 3.6 mph /  5.8 km/h 3.6 mph /  5.8 km/h 62 % 0 in /  0.0 mm
22:20 75.2 °F /  24.0 °C 61.3 °F /  16.3 °C 30 in /  1015.8 hPa SSW 3.8 mph /  6.1 km/h 3.8 mph /  6.1 km/h 62 % 0 in /  0.0 mm
22:25 75 °F /  23.9 °C 62.1 °F /  16.7 °C 30 in /  1015.8 hPa West 2.6 mph /  4.2 km/h 2.6 mph /  4.2 km/h 64 % 0 in /  0.0 mm
22:30 75 °F /  23.9 °C 62.4 °F /  16.9 °C 30 in /  1015.8 hPa SW 3.3 mph /  5.3 km/h 3.3 mph /  5.3 km/h 65 % 0 in /  0.0 mm
22:35 74.8 °F /  23.8 °C 62.2 °F /  16.8 °C 30 in /  1015.8 hPa SW 2.3 mph /  3.7 km/h 2.3 mph /  3.7 km/h 65 % 0 in /  0.0 mm
22:40 74.7 °F /  23.7 °C 62.4 °F /  16.9 °C 30 in /  1015.8 hPa SW 2.6 mph /  4.2 km/h 2.6 mph /  4.2 km/h 66 % 0 in /  0.0 mm
22:42 74.7 °F /  23.7 °C 62.4 °F /  16.9 °C 30 in /  1014.8 hPa West 2.6 mph /  4.2 km/h 2.6 mph /  4.2 km/h 66 % 0 in /  0.0 mm
22:47 74.7 °F /  23.7 °C 62.4 °F /  16.9 °C 30 in /  1014.8 hPa West 1.2 mph /  1.9 km/h 1.4 mph /  2.3 km/h 66 % 0 in /  0.0 mm
22:50 71.2 °F /  21.8 °C 63 °F /  17.2 °C 30 in /  1014.8 hPa SW 2 mph /  3.2 km/h 3 mph /  4.8 km/h 75 % 0 in /  0.0 mm
22:52 74.5 °F /  23.6 °C 63.1 °F /  17.3 °C 30 in /  1014.8 hPa Calm     68 % 0 in /  0.0 mm
22:57 74.5 °F /  23.6 °C 62.4 °F /  16.9 °C 30 in /  1015.8 hPa West 2.3 mph /  3.7 km/h 2.3 mph /  3.7 km/h 66 % 0 in /  0.0 mm
23:00 71.4 °F /  21.9 °C 63.5 °F /  17.5 °C 30 in /  1014.8 hPa WSW 2 mph /  3.2 km/h 2 mph /  3.2 km/h 76 % 0 in /  0.0 mm
23:02 74.5 °F /  23.6 °C 63.1 °F /  17.3 °C 30 in /  1015.8 hPa SW 2.3 mph /  3.7 km/h   68 % 0 in /  0.0 mm
23:07 74.3 °F /  23.5 °C 63.1 °F /  17.3 °C 30 in /  1015.8 hPa SW 2.3 mph /  3.7 km/h 2.3 mph /  3.7 km/h 68 % 0 in /  0.0 mm
23:10 71.6 °F /  22.0 °C 63.7 °F /  17.6 °C 30 in /  1014.8 hPa SW 2 mph /  3.2 km/h 2 mph /  3.2 km/h 76 % 0 in /  0.0 mm
23:12 74.3 °F /  23.5 °C 63.1 °F /  17.3 °C 30 in /  1015.8 hPa SW 2.3 mph /  3.7 km/h 2.3 mph /  3.7 km/h 68 % 0 in /  0.0 mm
23:17 74.3 °F /  23.5 °C 63.1 °F /  17.3 °C 30 in /  1015.8 hPa SW 2.3 mph /  3.7 km/h 2.3 mph /  3.7 km/h 68 % 0 in /  0.0 mm
23:20 71.8 °F /  22.1 °C 63.9 °F /  17.7 °C 30 in /  1014.8 hPa WSW 2 mph /  3.2 km/h 3 mph /  4.8 km/h 76 % 0 in /  0.0 mm
23:22 73.9 °F /  23.3 °C 62.8 °F /  17.1 °C 30 in /  1015.8 hPa SW 3.1 mph /  5.0 km/h 3.1 mph /  5.0 km/h 68 % 0 in /  0.0 mm
23:27 73.9 °F /  23.3 °C 63.1 °F /  17.3 °C 30 in /  1015.8 hPa SSW 2.3 mph /  3.7 km/h 2.3 mph /  3.7 km/h 69 % 0 in /  0.0 mm
23:30 71.6 °F /  22.0 °C 63.7 °F /  17.6 °C 30 in /  1015.8 hPa WSW 2 mph /  3.2 km/h 3 mph /  4.8 km/h 76 % 0 in /  0.0 mm
23:32 73.9 °F /  23.3 °C 63.1 °F /  17.3 °C 30 in /  1015.8 hPa SSW 2.4 mph /  3.9 km/h 2.4 mph /  3.9 km/h 69 % 0 in /  0.0 mm
23:37 73.8 °F /  23.2 °C 63.3 °F /  17.4 °C 30 in /  1015.8 hPa SW 2.3 mph /  3.7 km/h 2.3 mph /  3.7 km/h 70 % 0 in /  0.0 mm
23:40 71.6 °F /  22.0 °C 63.7 °F /  17.6 °C 30 in /  1015.8 hPa WSW 3 mph /  4.8 km/h 6 mph /  9.7 km/h 76 % 0 in /  0.0 mm
23:42 73.9 °F /  23.3 °C 63.5 °F /  17.5 °C 30 in /  1015.8 hPa SW 2.3 mph /  3.7 km/h 2.3 mph /  3.7 km/h 70 % 0 in /  0.0 mm
23:47 73.8 °F /  23.2 °C 63.3 °F /  17.4 °C 30 in /  1015.8 hPa WSW 2.3 mph /  3.7 km/h 2.3 mph /  3.7 km/h 70 % 0 in /  0.0 mm
23:50 71.6 °F /  22.0 °C 63.7 °F /  17.6 °C 30 in /  1014.8 hPa WSW 1 mph /  1.6 km/h 3 mph /  4.8 km/h 76 % 0 in /  0.0 mm
23:52 73.8 °F /  23.2 °C 63.3 °F /  17.4 °C 30 in /  1015.8 hPa SW 2.3 mph /  3.7 km/h 2.3 mph /  3.7 km/h 70 % 0 in /  0.0 mm
23:57 73.8 °F /  23.2 °C 63.3 °F /  17.4 °C 30 in /  1015.8 hPa SW 3.3 mph /  5.3 km/h 3.3 mph /  5.3 km/h 70 % 0 in /  0.0 mm
Meteo Sesrovires
Elogis d' Weather Underground - 3.5 mb

Guio original per  Jim McMurry - jmcmurry@mwt.net Adaptat per a la plantilla per  Wim van der Kuil - Leuven-Template.eu

Trobareu la nostra informacio del temps tambe a:

Weather Underground

AWEKAS